createdAt,value
2019-02-14T00:00:13.513Z,10.43
2019-02-14T00:02:41.928Z,10.93
2019-02-14T00:05:16.195Z,11.90
2019-02-14T00:07:40.589Z,10.93
2019-02-14T00:10:09.906Z,10.70
2019-02-14T00:12:38.489Z,11.07
2019-02-14T00:15:12.050Z,10.67
2019-02-14T00:17:40.468Z,10.60
2019-02-14T00:20:09.936Z,11.10
2019-02-14T00:22:38.353Z,10.53
2019-02-14T00:25:07.159Z,10.73
2019-02-14T00:27:35.650Z,10.53
2019-02-14T00:30:05.177Z,11.10
2019-02-14T00:32:33.608Z,10.43
2019-02-14T00:35:02.034Z,11.07
2019-02-14T00:37:30.468Z,10.87
2019-02-14T00:39:58.893Z,10.60
2019-02-14T00:42:27.324Z,9.63
2019-02-14T00:44:55.739Z,10.67
2019-02-14T00:47:24.164Z,10.70
2019-02-14T00:49:52.592Z,10.93
2019-02-14T00:52:21.017Z,9.53
2019-02-14T00:54:49.444Z,10.10
2019-02-14T00:57:17.880Z,10.37
2019-02-14T00:59:46.302Z,10.70
2019-02-14T01:02:14.738Z,10.50
2019-02-14T01:04:43.164Z,10.58
2019-02-14T01:07:11.593Z,10.48
2019-02-14T01:09:40.022Z,10.70
2019-02-14T01:12:09.129Z,10.40
2019-02-14T01:14:37.547Z,9.80
2019-02-14T01:17:06.005Z,10.40
2019-02-14T01:19:34.672Z,9.83
2019-02-14T01:22:03.119Z,9.98
2019-02-14T01:24:31.540Z,10.53
2019-02-14T01:26:59.969Z,9.80
2019-02-14T01:29:28.388Z,9.80
2019-02-14T01:31:58.132Z,10.30
2019-02-14T01:34:45.884Z,9.23
2019-02-14T01:37:14.309Z,9.77
2019-02-14T01:39:42.809Z,10.07
2019-02-14T01:42:11.227Z,10.13
2019-02-14T01:44:58.990Z,10.33
2019-02-14T01:47:27.416Z,10.30
2019-02-14T01:49:55.828Z,9.80
2019-02-14T01:52:24.259Z,9.83
2019-02-14T01:54:52.680Z,9.98
2019-02-14T01:57:21.112Z,9.80
2019-02-14T01:59:49.538Z,11.30
2019-02-14T02:02:17.978Z,11.12
2019-02-14T02:04:46.409Z,10.70
2019-02-14T02:07:14.857Z,9.73
2019-02-14T02:09:43.558Z,10.25
2019-02-14T02:12:11.988Z,11.08
2019-02-14T02:14:40.429Z,10.28
2019-02-14T02:17:08.857Z,11.93
2019-02-14T02:19:37.297Z,10.53
2019-02-14T02:22:06.018Z,10.48
2019-02-14T02:24:34.503Z,9.50
2019-02-14T02:27:02.921Z,11.20
2019-02-14T02:29:31.364Z,10.55
2019-02-14T02:31:59.793Z,10.50
2019-02-14T02:34:28.306Z,10.98
2019-02-14T02:36:56.734Z,10.35
2019-02-14T02:39:25.182Z,10.88
2019-02-14T02:41:53.625Z,10.55
2019-02-14T02:44:22.120Z,10.13
2019-02-14T02:46:50.541Z,10.80
2019-02-14T02:49:18.981Z,11.00
2019-02-14T02:51:47.686Z,10.40
2019-02-14T02:54:16.137Z,10.03
2019-02-14T02:56:44.561Z,10.78
2019-02-14T02:59:14.238Z,10.25
2019-02-14T03:01:42.898Z,9.93
2019-02-14T03:04:11.345Z,10.32
2019-02-14T03:06:39.772Z,9.58
2019-02-14T03:09:08.214Z,9.83
2019-02-14T03:11:36.713Z,9.60
2019-02-14T03:14:05.176Z,9.40
2019-02-14T03:16:33.593Z,9.95
2019-02-14T03:19:02.046Z,10.23
2019-02-14T03:21:30.469Z,9.38
2019-02-14T03:23:58.905Z,9.40
2019-02-14T03:26:27.650Z,9.58
2019-02-14T03:28:56.090Z,10.08
2019-02-14T03:31:24.522Z,11.50
2019-02-14T03:33:52.949Z,10.05
2019-02-14T03:36:21.381Z,9.33
2019-02-14T03:38:49.809Z,9.63
2019-02-14T03:41:18.245Z,10.10
2019-02-14T03:43:46.673Z,9.43
2019-02-14T03:46:15.117Z,8.98
2019-02-14T03:48:43.532Z,9.60
2019-02-14T03:51:11.970Z,9.88
2019-02-14T03:53:40.477Z,9.00
2019-02-14T03:56:08.916Z,8.93
2019-02-14T03:58:37.358Z,9.23
2019-02-14T04:01:05.789Z,9.43
2019-02-14T04:03:34.208Z,9.00
2019-02-14T04:06:02.653Z,9.48
2019-02-14T04:08:31.430Z,9.70
2019-02-14T04:10:59.858Z,10.03
2019-02-14T04:13:28.293Z,10.65
2019-02-14T04:15:57.092Z,9.83
2019-02-14T04:18:25.537Z,9.60
2019-02-14T04:20:53.969Z,9.05
2019-02-14T04:23:22.392Z,9.08
2019-02-14T04:25:50.830Z,9.58
2019-02-14T04:28:19.256Z,10.20
2019-02-14T04:30:47.688Z,11.43
2019-02-14T04:33:16.254Z,10.58
2019-02-14T04:35:44.753Z,9.53
2019-02-14T04:38:13.178Z,9.60
2019-02-14T04:40:41.609Z,9.23
2019-02-14T04:43:10.025Z,9.55
2019-02-14T04:45:38.457Z,8.73
2019-02-14T04:48:06.872Z,9.43
2019-02-14T04:50:35.913Z,9.45
2019-02-14T04:53:04.336Z,9.35
2019-02-14T04:55:32.784Z,9.03
2019-02-14T04:58:01.209Z,8.85
2019-02-14T05:00:29.650Z,9.70
2019-02-14T05:02:58.073Z,9.50
2019-02-14T05:05:26.493Z,9.23
2019-02-14T05:07:54.924Z,9.58
2019-02-14T05:10:23.343Z,9.28
2019-02-14T05:12:51.781Z,8.90
2019-02-14T05:15:20.208Z,9.15
2019-02-14T05:17:48.653Z,8.53
2019-02-14T05:20:17.078Z,9.08
2019-02-14T05:22:45.501Z,8.95
2019-02-14T05:25:15.285Z,9.20
2019-02-14T05:27:43.710Z,9.43
2019-02-14T05:30:18.669Z,9.45
2019-02-14T05:32:47.100Z,10.18
2019-02-14T05:35:15.516Z,9.93
2019-02-14T05:37:43.946Z,9.03
2019-02-14T05:40:12.369Z,9.80
2019-02-14T05:42:40.805Z,9.63
2019-02-14T05:45:14.085Z,9.45
2019-02-14T05:47:42.524Z,11.03
2019-02-14T05:50:14.737Z,10.63
2019-02-14T05:52:43.180Z,10.20
2019-02-14T05:55:12.521Z,10.35
2019-02-14T05:57:40.970Z,9.27
2019-02-14T06:00:17.545Z,9.98
2019-02-14T06:02:46.037Z,10.07
2019-02-14T06:05:14.499Z,10.78
2019-02-14T06:07:43.202Z,10.10
2019-02-14T06:10:12.164Z,10.50
2019-02-14T06:12:40.592Z,9.63
2019-02-14T06:15:28.356Z,9.75
2019-02-14T06:17:56.439Z,9.43
2019-02-14T06:20:24.865Z,9.45
2019-02-14T06:22:53.312Z,9.00
2019-02-14T06:25:21.737Z,10.18
2019-02-14T06:27:50.174Z,9.15
2019-02-14T06:30:18.600Z,10.00
2019-02-14T06:32:47.088Z,9.88
2019-02-14T06:35:15.504Z,10.10
2019-02-14T06:37:43.942Z,9.55
2019-02-14T06:40:13.704Z,9.43
2019-02-14T06:42:42.139Z,9.78
2019-02-14T06:45:14.880Z,9.83
2019-02-14T06:47:42.972Z,9.35
2019-02-14T06:50:11.062Z,9.95
2019-02-14T06:52:40.432Z,9.28
2019-02-14T06:55:09.648Z,9.73
2019-02-14T06:57:37.748Z,9.90
2019-02-14T07:00:11.760Z,9.93
2019-02-14T07:02:39.869Z,9.68
2019-02-14T07:05:09.644Z,10.10
2019-02-14T07:07:37.814Z,9.98
2019-02-14T07:10:08.577Z,9.68
2019-02-14T07:12:37.004Z,10.10
2019-02-14T07:15:31.912Z,10.55
2019-02-14T07:18:00.349Z,10.25
2019-02-14T07:20:28.773Z,10.35
2019-02-14T07:22:57.208Z,10.20
2019-02-14T07:25:25.358Z,11.12
2019-02-14T07:27:53.792Z,11.12
2019-02-14T07:30:22.859Z,10.03
2019-02-14T07:32:51.309Z,10.85
2019-02-14T07:35:19.881Z,10.25
2019-02-14T07:37:48.300Z,10.20
2019-02-14T07:40:17.216Z,10.45
2019-02-14T07:42:45.672Z,11.15
2019-02-14T07:45:16.180Z,11.18
2019-02-14T07:47:44.605Z,11.03
2019-02-14T07:50:13.733Z,10.75
2019-02-14T07:52:42.219Z,10.25
2019-02-14T07:55:12.197Z,11.40
2019-02-14T07:57:40.374Z,12.33
2019-02-14T08:00:12.033Z,12.33
2019-02-14T08:02:40.140Z,12.18
2019-02-14T08:05:09.602Z,12.55
2019-02-14T08:07:38.046Z,12.98
2019-02-14T08:10:11.963Z,13.18
2019-02-14T08:12:40.056Z,14.15
2019-02-14T08:15:11.193Z,13.88
2019-02-14T08:17:39.295Z,13.68
2019-02-14T08:20:10.568Z,14.78
2019-02-14T08:22:39.238Z,13.18
2019-02-14T08:25:09.909Z,13.25
2019-02-14T08:27:38.305Z,12.33
2019-02-14T08:30:12.533Z,12.53
2019-02-14T08:32:40.960Z,11.70
2019-02-14T08:35:09.667Z,11.57
2019-02-14T08:37:44.940Z,11.60
2019-02-14T08:40:12.069Z,11.40
2019-02-14T08:42:40.488Z,12.07
2019-02-14T08:45:10.061Z,11.23
2019-02-14T08:47:38.472Z,12.10
2019-02-14T08:50:08.854Z,10.83
2019-02-14T08:52:36.955Z,10.97
2019-02-14T08:55:09.721Z,11.47
2019-02-14T08:57:37.837Z,11.40
2019-02-14T09:00:09.629Z,11.97
2019-02-14T09:02:38.057Z,11.87
2019-02-14T09:05:07.424Z,10.77
2019-02-14T09:07:35.853Z,11.17
2019-02-14T09:10:05.502Z,10.87
2019-02-14T09:12:35.579Z,11.50
2019-02-14T09:15:06.276Z,11.43
2019-02-14T09:17:34.696Z,10.60
2019-02-14T09:20:03.136Z,11.53
2019-02-14T09:22:31.221Z,12.03
2019-02-14T09:24:59.316Z,11.60
2019-02-14T09:27:27.744Z,11.57
2019-02-14T09:29:55.912Z,12.47
2019-02-14T09:32:26.040Z,10.50
2019-02-14T09:34:54.465Z,11.73
2019-02-14T09:37:22.891Z,11.13
2019-02-14T09:39:51.312Z,12.17
2019-02-14T09:42:19.794Z,12.43
2019-02-14T09:44:48.220Z,11.30
2019-02-14T09:47:16.646Z,11.60
2019-02-14T09:49:44.742Z,10.63
2019-02-14T09:52:12.928Z,11.13
2019-02-14T09:54:41.372Z,11.87
2019-02-14T09:57:09.476Z,10.50
2019-02-14T09:59:37.905Z,10.63
2019-02-14T10:02:06.381Z,10.93
2019-02-14T10:04:34.806Z,10.97
2019-02-14T10:07:03.230Z,10.27
2019-02-14T10:09:31.645Z,11.43
2019-02-14T10:12:00.059Z,11.43
2019-02-14T10:14:28.503Z,11.00
2019-02-14T10:16:56.912Z,12.50
2019-02-14T10:19:25.340Z,13.07
2019-02-14T10:21:53.751Z,11.70
2019-02-14T10:24:22.176Z,11.13
2019-02-14T10:26:50.592Z,12.10
2019-02-14T10:29:19.028Z,12.83
2019-02-14T10:31:47.442Z,12.17
2019-02-14T10:34:15.865Z,12.53
2019-02-14T10:36:44.312Z,11.17
2019-02-14T10:39:12.793Z,10.67
2019-02-14T10:41:41.209Z,12.53
2019-02-14T10:44:09.651Z,11.23
2019-02-14T10:46:38.072Z,11.90
2019-02-14T10:49:06.505Z,11.90
2019-02-14T10:51:34.927Z,11.80
2019-02-14T10:54:03.436Z,11.20
2019-02-14T10:56:32.261Z,11.57
2019-02-14T10:59:00.709Z,11.03
2019-02-14T11:01:29.137Z,10.87
2019-02-14T11:03:57.897Z,11.40
2019-02-14T11:06:26.323Z,10.37
2019-02-14T11:08:54.732Z,10.50
2019-02-14T11:11:23.154Z,10.77
2019-02-14T11:13:51.916Z,10.90
2019-02-14T11:16:20.324Z,10.90
2019-02-14T11:18:48.774Z,11.17
2019-02-14T11:21:17.462Z,11.40
2019-02-14T11:23:46.156Z,10.73
2019-02-14T11:26:14.564Z,11.10
2019-02-14T11:28:42.993Z,10.63
2019-02-14T11:31:11.400Z,10.13
2019-02-14T11:33:39.820Z,10.70
2019-02-14T11:36:08.284Z,10.43
2019-02-14T11:38:40.669Z,9.60
2019-02-14T11:41:06.519Z,9.60
2019-02-14T11:43:34.925Z,9.60
2019-02-14T11:46:03.348Z,9.40
2019-02-14T11:48:31.790Z,10.17
2019-02-14T11:50:59.884Z,8.53
2019-02-14T11:53:29.436Z,8.90
2019-02-14T11:55:57.664Z,8.37
2019-02-14T11:58:26.076Z,8.37
2019-02-14T12:00:54.491Z,7.40
2019-02-14T12:03:22.899Z,7.77
2019-02-14T12:05:51.014Z,6.90
2019-02-14T12:08:19.417Z,5.83
2019-02-14T12:10:47.838Z,7.17
2019-02-14T12:13:16.580Z,7.53
2019-02-14T12:15:44.697Z,7.13
2019-02-14T12:18:13.110Z,7.47
2019-02-14T12:20:41.528Z,6.57
2019-02-14T12:23:09.937Z,6.80
2019-02-14T12:25:38.357Z,6.50
2019-02-14T12:28:06.764Z,5.67
2019-02-14T12:30:34.872Z,5.03
2019-02-14T12:33:03.282Z,4.13
2019-02-14T12:35:31.411Z,5.40
2019-02-14T12:37:59.815Z,5.13
2019-02-14T12:40:28.237Z,5.43
2019-02-14T12:42:56.644Z,5.47
2019-02-14T12:45:26.257Z,5.40
2019-02-14T12:47:54.791Z,4.93
2019-02-14T12:50:22.907Z,5.50
2019-02-14T12:52:51.335Z,5.93
2019-02-14T12:55:19.742Z,5.70
2019-02-14T12:57:47.851Z,5.13
2019-02-14T13:00:18.992Z,5.03
2019-02-14T13:02:47.064Z,4.90
2019-02-14T13:05:15.493Z,5.03
2019-02-14T13:07:43.893Z,5.20
2019-02-14T13:10:15.125Z,5.10
2019-02-14T13:12:43.537Z,5.20
2019-02-14T13:15:20.823Z,5.27
2019-02-14T13:17:49.221Z,5.20
2019-02-14T13:20:17.313Z,5.27
2019-02-14T13:22:45.720Z,4.80
2019-02-14T13:25:14.672Z,5.00
2019-02-14T13:27:43.088Z,4.80
2019-02-14T13:30:14.807Z,5.50
2019-02-14T13:32:43.221Z,5.73
2019-02-14T13:35:11.633Z,5.27
2019-02-14T13:37:40.564Z,5.23
2019-02-14T13:40:09.602Z,5.70
2019-02-14T13:42:38.010Z,5.10
2019-02-14T13:45:15.305Z,5.20
2019-02-14T13:47:43.798Z,4.73
2019-02-14T13:50:12.706Z,4.43
2019-02-14T13:52:41.121Z,5.13
2019-02-14T13:55:10.668Z,4.87
2019-02-14T13:57:39.152Z,5.63
2019-02-14T14:00:19.768Z,4.60
2019-02-14T14:02:48.179Z,4.90
2019-02-14T14:05:16.953Z,5.07
2019-02-14T14:07:45.361Z,5.60
2019-02-14T14:10:13.786Z,5.10
2019-02-14T14:12:42.523Z,5.83
2019-02-14T14:15:10.760Z,5.17
2019-02-14T14:17:39.203Z,4.70
2019-02-14T14:20:08.947Z,5.00
2019-02-14T14:22:37.452Z,4.93
2019-02-14T14:25:07.691Z,5.20
2019-02-14T14:27:36.108Z,4.83
2019-02-14T14:30:07.929Z,4.30
2019-02-14T14:32:55.678Z,4.40
2019-02-14T14:35:24.428Z,5.77
2019-02-14T14:37:52.840Z,4.97
2019-02-14T14:40:21.253Z,5.13
2019-02-14T14:42:50.977Z,5.53
2019-02-14T14:45:37.366Z,5.63
2019-02-14T14:48:05.771Z,5.20
2019-02-14T14:50:34.185Z,5.80
2019-02-14T14:53:02.600Z,5.13
2019-02-14T14:55:31.004Z,5.87
2019-02-14T14:57:59.441Z,4.97
2019-02-14T15:00:27.857Z,5.50
2019-02-14T15:02:56.276Z,5.20
2019-02-14T15:05:24.681Z,5.27
2019-02-14T15:07:53.094Z,5.33
2019-02-14T15:10:21.515Z,5.17
2019-02-14T15:12:49.913Z,5.20
2019-02-14T15:15:18.663Z,5.07
2019-02-14T15:17:47.092Z,4.57
2019-02-14T15:20:15.175Z,5.40
2019-02-14T15:22:43.609Z,5.93
2019-02-14T15:25:11.684Z,5.20
2019-02-14T15:27:39.774Z,5.33
2019-02-14T15:30:11.200Z,5.73
2019-02-14T15:32:39.620Z,5.57
2019-02-14T15:35:08.899Z,5.83
2019-02-14T15:37:37.316Z,5.87
2019-02-14T15:40:09.107Z,5.40
2019-02-14T15:42:36.607Z,5.83
2019-02-14T15:45:05.753Z,6.10
2019-02-14T15:47:34.173Z,6.43
2019-02-14T15:50:04.336Z,6.87
2019-02-14T15:52:32.750Z,6.50
2019-02-14T15:55:01.164Z,7.03
2019-02-14T15:57:29.608Z,6.23
2019-02-14T15:59:58.064Z,6.33
2019-02-14T16:02:28.441Z,6.77
2019-02-14T16:04:56.887Z,6.37
2019-02-14T16:07:24.976Z,6.73
2019-02-14T16:09:53.060Z,5.20
2019-02-14T16:12:21.969Z,4.70
2019-02-14T16:14:50.571Z,10.57
2019-02-14T16:17:18.644Z,6.60
2019-02-14T16:19:46.716Z,5.37
2019-02-14T16:22:15.836Z,3.83
2019-02-14T16:24:45.268Z,7.70
2019-02-14T16:27:13.682Z,7.97
2019-02-14T16:29:42.101Z,7.47
2019-02-14T16:32:10.504Z,4.40
2019-02-14T16:34:38.952Z,6.00
2019-02-14T16:37:07.435Z,5.27
2019-02-14T16:39:36.708Z,6.17
2019-02-14T16:42:05.120Z,7.23
2019-02-14T16:44:33.536Z,7.13
2019-02-14T16:47:01.952Z,7.67
2019-02-14T16:49:30.373Z,5.70
2019-02-14T16:51:58.776Z,5.37
2019-02-14T16:54:27.196Z,5.43
2019-02-14T16:56:55.600Z,3.10
2019-02-14T16:59:24.056Z,8.50
2019-02-14T17:01:52.460Z,4.30
2019-02-14T17:04:20.890Z,29.73
2019-02-14T17:06:49.298Z,7.87
2019-02-14T17:09:17.766Z,7.33
2019-02-14T17:11:46.168Z,18.30
2019-02-14T17:14:14.606Z,49.90
2019-02-14T17:16:42.708Z,10.03
2019-02-14T17:19:10.793Z,14.07
2019-02-14T17:21:38.882Z,12.00
2019-02-14T17:24:06.977Z,9.70
2019-02-14T17:26:35.384Z,7.77
2019-02-14T17:29:03.468Z,8.07
2019-02-14T17:31:31.885Z,10.07
2019-02-14T17:33:59.980Z,9.60
2019-02-14T17:36:28.390Z,18.53
2019-02-14T17:38:56.834Z,28.03
2019-02-14T17:41:25.252Z,20.50
2019-02-14T17:43:53.681Z,14.60
2019-02-14T17:46:22.119Z,11.37
2019-02-14T17:48:50.550Z,8.80
2019-02-14T17:51:18.952Z,4.90
2019-02-14T17:53:47.376Z,5.97
2019-02-14T17:56:15.462Z,7.97
2019-02-14T17:58:43.573Z,8.80
2019-02-14T18:01:12.065Z,5.50
2019-02-14T18:03:40.475Z,5.20
2019-02-14T18:06:08.910Z,4.97
2019-02-14T18:08:37.409Z,4.87
2019-02-14T18:11:05.984Z,4.10
2019-02-14T18:13:34.402Z,5.87
2019-02-14T18:16:02.894Z,6.40
2019-02-14T18:18:30.981Z,5.67
2019-02-14T18:20:59.072Z,6.23
2019-02-14T18:23:27.506Z,8.17
2019-02-14T18:25:55.684Z,8.30
2019-02-14T18:28:23.780Z,10.13
2019-02-14T18:30:52.213Z,9.10
2019-02-14T18:33:20.681Z,8.83
2019-02-14T18:35:49.132Z,6.33
2019-02-14T18:38:17.544Z,7.13
2019-02-14T18:40:46.281Z,9.77
2019-02-14T18:43:14.696Z,7.23
2019-02-14T18:45:42.785Z,8.40
2019-02-14T18:48:10.863Z,7.77
2019-02-14T18:50:42.215Z,8.93
2019-02-14T18:53:10.624Z,13.73
2019-02-14T18:55:38.737Z,12.30
2019-02-14T18:58:06.832Z,13.97
2019-02-14T19:00:35.267Z,11.60
2019-02-14T19:03:03.774Z,14.87
2019-02-14T19:05:32.196Z,19.70
2019-02-14T19:08:00.622Z,19.50
2019-02-14T19:10:29.066Z,11.43
2019-02-14T19:12:57.486Z,10.07
2019-02-14T19:15:25.929Z,11.90
2019-02-14T19:17:54.346Z,8.83
2019-02-14T19:20:22.764Z,9.63
2019-02-14T19:22:50.872Z,10.87
2019-02-14T19:25:19.280Z,18.60
2019-02-14T19:27:47.376Z,24.82
2019-02-14T19:30:15.807Z,21.73
2019-02-14T19:32:44.005Z,11.87
2019-02-14T19:35:12.424Z,14.80
2019-02-14T19:37:40.859Z,18.07
2019-02-14T19:40:09.553Z,16.57
2019-02-14T19:42:37.985Z,17.87
2019-02-14T19:45:36.257Z,17.10
2019-02-14T19:47:57.121Z,9.63
2019-02-14T19:50:25.648Z,13.43
2019-02-14T19:52:54.110Z,13.73
2019-02-14T19:55:22.531Z,9.37
2019-02-14T19:57:50.945Z,20.60
2019-02-14T20:00:19.369Z,22.97
2019-02-14T20:02:47.797Z,18.73
2019-02-14T20:05:16.233Z,17.13
2019-02-14T20:07:44.653Z,13.40
2019-02-14T20:10:14.549Z,13.80
2019-02-14T20:12:43.238Z,13.23
2019-02-14T20:15:14.566Z,13.43
2019-02-14T20:17:42.994Z,12.03
2019-02-14T20:20:11.435Z,12.00
2019-02-14T20:22:39.852Z,11.87
2019-02-14T20:25:20.377Z,11.20
2019-02-14T20:27:50.041Z,9.37
2019-02-14T20:30:18.630Z,10.23
2019-02-14T20:32:47.040Z,10.00
2019-02-14T20:35:15.456Z,10.40
2019-02-14T20:37:44.178Z,10.23
2019-02-14T20:40:12.590Z,26.87
2019-02-14T20:42:41.341Z,39.63
2019-02-14T20:45:12.810Z,37.57
2019-02-14T20:47:41.276Z,22.93
2019-02-14T20:50:11.921Z,22.13
2019-02-14T20:52:40.421Z,18.20
2019-02-14T20:55:11.945Z,19.77
2019-02-14T20:57:40.382Z,14.43
2019-02-14T21:00:12.478Z,36.37
2019-02-14T21:02:40.893Z,14.30
2019-02-14T21:05:09.320Z,21.10
2019-02-14T21:07:37.751Z,20.03
2019-02-14T21:10:07.566Z,54.53
2019-02-14T21:12:36.000Z,23.10
2019-02-14T21:15:05.676Z,28.87
2019-02-14T21:17:34.100Z,18.23
2019-02-14T21:20:02.524Z,18.40
2019-02-14T21:22:30.934Z,19.17
2019-02-14T21:24:59.366Z,18.37
2019-02-14T21:27:27.777Z,40.47
2019-02-14T21:29:56.215Z,21.30
2019-02-14T21:32:24.627Z,18.37
2019-02-14T21:34:53.075Z,22.10
2019-02-14T21:37:21.565Z,15.80
2019-02-14T21:39:49.987Z,16.07
2019-02-14T21:42:22.077Z,18.93
2019-02-14T21:44:48.619Z,20.57
2019-02-14T21:47:17.139Z,14.13
2019-02-14T21:49:45.630Z,14.40
2019-02-14T21:52:14.400Z,15.87
2019-02-14T21:54:42.879Z,18.23
2019-02-14T21:57:11.291Z,18.53
2019-02-14T21:59:39.737Z,15.33
2019-02-14T22:02:08.175Z,15.57
2019-02-14T22:04:36.658Z,18.97
2019-02-14T22:07:05.204Z,17.47
2019-02-14T22:09:33.759Z,17.13
2019-02-14T22:12:02.216Z,17.50
2019-02-14T22:14:30.762Z,17.93
2019-02-14T22:16:59.591Z,17.47
2019-02-14T22:19:28.026Z,16.40
2019-02-14T22:21:56.447Z,12.50
2019-02-14T22:24:24.893Z,12.70
2019-02-14T22:26:53.380Z,13.30
2019-02-14T22:29:21.872Z,12.10
2019-02-14T22:31:50.295Z,11.90
2019-02-14T22:34:18.721Z,11.43
2019-02-14T22:36:47.141Z,11.17
2019-02-14T22:39:15.565Z,10.93
2019-02-14T22:41:44.001Z,12.07
2019-02-14T22:44:12.416Z,11.03
2019-02-14T22:46:40.841Z,10.77
2019-02-14T22:49:09.286Z,11.20
2019-02-14T22:51:37.784Z,11.37
2019-02-14T22:54:06.499Z,12.00
2019-02-14T22:56:34.933Z,11.40
2019-02-14T22:59:03.361Z,12.07
2019-02-14T23:01:31.848Z,12.20
2019-02-14T23:04:00.281Z,12.23
2019-02-14T23:06:29.577Z,14.73
2019-02-14T23:08:58.041Z,14.40
2019-02-14T23:11:26.461Z,12.70
2019-02-14T23:13:54.885Z,14.27
2019-02-14T23:16:23.436Z,14.00
2019-02-14T23:18:52.134Z,14.17
2019-02-14T23:21:20.568Z,15.10
2019-02-14T23:23:49.004Z,15.07
2019-02-14T23:26:17.433Z,15.03
2019-02-14T23:28:45.861Z,16.23
2019-02-14T23:31:14.301Z,16.97
2019-02-14T23:33:42.734Z,16.85
2019-02-14T23:36:11.170Z,15.70
2019-02-14T23:38:39.597Z,15.73
2019-02-14T23:41:08.028Z,13.53
2019-02-14T23:43:36.464Z,15.43
2019-02-14T23:46:04.901Z,15.03
2019-02-14T23:48:33.339Z,15.45
2019-02-14T23:51:03.507Z,15.23
2019-02-14T23:53:31.924Z,11.88
2019-02-14T23:56:00.369Z,12.45
2019-02-14T23:58:28.786Z,12.45
